Medlin's Ranch, Nevada Weather observations

Data are for observation ending at time listed.
 Day   Time    Ave.   Ave.  Ave.  Vector   Max.   Stn.    Total    Solar   Ave.  
  of    of     Air    Rel.  Wind   Wind    Wind   Baro.  Precip.   Rad.    Soil  
Year   Day     Temp.  Hum.  Speed  Dir.    Gust   Pres.                    Temp. 
2016   (PST)    F      %     mph   deg.    mph     mb.     in.     W/m2     F   
------------------------------------------------------------------------------
  39    8:00   37.3    55    9.5     2     14.0    878     0.00     137    34.8
  39    9:00   46.5    37    9.7   330     18.9    878     0.00     325    34.7
  39   10:00   50.1    36    9.0   349     14.4    878     0.00     498    35.1
  39   11:00   52.0    36   10.0   343     17.5    878     0.00     620    37.0
  39   12:00   54.5    34   10.1   344     17.2    877     0.00     685    39.4
  39   13:00   56.8    31   10.9   324     17.2    876     0.00     693    41.6
  39   14:00   57.7    30   11.2   320     18.6    876     0.00     633    43.1
  39   15:00   58.1    30   10.4   322     18.9    876     0.00     510    43.6
  39   16:00   58.0    30    9.8   332     18.2    876     0.00     333    43.7
  39   17:00   56.4    32    8.1   320     14.7    876     0.00     138    43.7
  39   18:00   49.3    45    6.4   337     10.8    876     0.00       3    43.5
  39   19:00   43.8    56    6.0   333     11.1    876     0.00       0    42.8
  39   20:00   40.6    61    5.5   357      8.9    876     0.00       0    42.0
  39   21:00   38.6    63    6.7   354      9.9    876     0.00       0    41.1
  39   22:00   39.0    61    6.8   340     11.7    876     0.00       0    40.3
  39   23:00   38.3    62    6.7   325     11.3    876     0.00       0    39.7
  40    0:00   37.3    63    6.8   334     12.0    876     0.00       0    39.1
  40    1:00   36.6    64    4.3   354     12.9    876     0.00       0    38.5
  40    2:00   37.3    61    8.5   333     13.9    876     0.00       0    38.0
  40    3:00   36.2    64    6.0   343     11.8    875     0.00       0    37.6
  40    4:00   35.7    66    5.6   352      9.9    875     0.00       0    37.2
  40    5:00   36.2    64    7.2   340     12.0    875     0.00       0    36.9
  40    6:00   35.8    63    7.7   338     12.7    875     0.00       0    36.6
  40    7:00   34.3    67    7.1   354     12.5    875     0.00       4    36.4

Return to Medlin's Ranch, Nevada graphs page.


Western Regional Climate Center,wrcc@dri.edu